• Join FlightAware (Why Join?)
  • Login
  • US Flag 
08:18PM EST


 

Airport Tracker/Info


-or-


 

Live Flight TrackerFlight Track Log ✈ SKW6345 ✈ 03-Aug-2013 ✈ KBZN - KSFO

Flight Track Log - Related Links

Times and Time Zones

All times are in EDT time to prevent confusion due to time zone crossing. See the SKW6345 flight status page for this flight to view local times or setup timezone preferences in your user account.

Time Position Orientation Groundspeed Altitude Reporting Facility
EDT Latitude Longitude Course Direction KTS MPH feet Rate Location/Type
02:07PM 45.4528 -111.6945 230° Southwest  Level Estimated
02:08PM 45.3875 -111.8023 229° Southwest  Level Estimated
02:09PM 45.3221 -111.9098 229° Southwest  Level Estimated
02:10PM 45.2566 -112.0170 229° Southwest  Level Estimated
02:11PM 45.1911 -112.1240 229° Southwest  Level Estimated
02:12PM 45.1254 -112.2308 229° Southwest  Level Estimated
02:13PM 45.0596 -112.3373 229° Southwest  Level Estimated
02:13PM 45.7264 -111.1275 228° Southwest 218 251 6,200  Level Salt Lake Center
02:14PM 44.9821 -112.4624 229° Southwest  Level Estimated
02:14PM 45.6997 -111.2361 251° West 244 281 8,600  Level Salt Lake Center
02:15PM 44.9044 -112.5872 229° Southwest  Level Estimated
02:15PM 45.7142 -111.3453 281° West 266 306 10,700  Level Salt Lake Center
02:16PM 44.8265 -112.7116 229° Southwest  Level Estimated
02:16PM 45.7117 -111.4525 268° West 276 318 12,500  Level Salt Lake Center
02:17PM 44.7486 -112.8356 229° Southwest  Level Estimated
02:17PM 45.6600 -111.5344 228° Southwest 280 322 14,000  Level Salt Lake Center
02:18PM 44.6705 -112.9594 228° Southwest  Level Estimated
02:18PM 45.6047 -111.6197 227° Southwest 288 331 15,200  Level Salt Lake Center
02:19PM 45.5458 -111.7125 228° Southwest 308 354 16,700 1,200 Climbing Salt Lake Center
02:20PM 45.4856 -111.8039 227° Southwest 315 362 17,700 1,080 Climbing Salt Lake Center
02:21PM 45.4114 -111.9164 227° Southwest 324 373 19,000 1,260 Climbing Salt Lake Center
02:22PM 45.3489 -112.0117 227° Southwest 327 376 20,300 1,080 Climbing Salt Lake Center
02:23PM 45.2892 -112.1008 226° Southwest 332 382 21,300 960 Climbing Salt Lake Center
02:24PM 45.2178 -112.2086 227° Southwest 335 386 22,300 840 Climbing Salt Lake Center
02:25PM 45.1547 -112.3042 227° Southwest 343 395 23,100 960 Climbing Salt Lake Center
02:26PM 45.0817 -112.4139 227° Southwest 344 396 24,400 900 Climbing Salt Lake Center
02:28PM 45.0183 -112.5072 226° Southwest 345 397 25,000 600 Climbing Salt Lake Center
02:29PM 44.9447 -112.6172 227° Southwest 346 398 25,700 480 Climbing Salt Lake Center
02:30PM 44.8792 -112.7133 226° Southwest 353 406 26,100 480 Climbing Salt Lake Center
02:31PM 44.8011 -112.8247 225° Southwest 358 412 26,700 480 Climbing Salt Lake Center
02:32PM 44.7367 -112.9219 227° Southwest 357 411 27,200 360 Climbing Salt Lake Center
02:33PM 44.6597 -113.0347 226° Southwest 358 412 27,500 480 Climbing Salt Lake Center
02:34PM 44.5922 -113.1328 226° Southwest 363 418 28,200 660 Climbing Salt Lake Center
02:35PM 44.5144 -113.2442 226° Southwest 358 412 28,900 540 Climbing Salt Lake Center
02:36PM 44.4494 -113.3389 226° Southwest 354 407 29,400 480 Climbing Salt Lake Center
02:37PM 44.3725 -113.4483 225° Southwest 352 405 29,900 300 Climbing Salt Lake Center
02:38PM 44.3067 -113.5408 225° Southwest 352 405 30,100 480 Climbing Salt Lake Center
02:39PM 44.2311 -113.6503 226° Southwest 350 403 30,900 480 Climbing Salt Lake Center
02:40PM 44.1675 -113.7431 226° Southwest 347 399 31,200 360 Climbing Salt Lake Center
02:41PM 44.0928 -113.8494 226° Southwest 344 396 31,700 360 Climbing Salt Lake Center
02:42PM 44.0261 -113.9447 226° Southwest 341 392 32,000 120 Climbing Salt Lake Center
02:43PM 43.9572 -114.0400 225° Southwest 357 411 32,000  Level Salt Lake Center
02:44PM 43.8797 -114.1483 225° Southwest 355 409 32,000  Level Salt Lake Center
02:45PM 43.8114 -114.2444 225° Southwest 363 418 32,000  Level Salt Lake Center
02:46PM 43.7314 -114.3561 225° Southwest 367 422 32,000  Level Salt Lake Center
02:47PM 43.6619 -114.4519 225° Southwest 367 422 32,000  Level Salt Lake Center
02:48PM 43.5922 -114.5483 225° Southwest 370 426 32,000  Level Salt Lake Center
02:49PM 43.5111 -114.6606 225° Southwest 371 427 32,000  Level Salt Lake Center
02:50PM 43.4408 -114.7564 225° Southwest 370 426 32,000  Level Salt Lake Center
02:51PM 43.3583 -114.8692 225° Southwest 373 429 32,000  Level Salt Lake Center
02:52PM 43.2886 -114.9636 225° Southwest 369 425 32,000  Level Salt Lake Center
02:53PM 43.2053 -115.0772 225° Southwest 375 432 32,000  Level Salt Lake Center
02:54PM 43.1328 -115.1767 225° Southwest 381 438 32,000  Level Salt Lake Center
02:55PM 43.0492 -115.2892 225° Southwest 376 433 32,000  Level Salt Lake Center
02:56PM 42.9769 -115.3844 224° Southwest 376 433 32,000  Level Salt Lake Center
02:57PM 42.8919 -115.4975 224° Southwest 381 438 32,000  Level Salt Lake Center
02:59PM 42.8203 -115.5936 225° Southwest 378 435 32,000  Level Salt Lake Center
03:00PM 42.7483 -115.6903 225° Southwest 378 435 32,000  Level Salt Lake Center
03:01PM 42.6633 -115.8017 224° Southwest 378 435 32,000  Level Salt Lake Center
03:02PM 42.5908 -115.8975 224° Southwest 379 436 32,000  Level Salt Lake Center
03:03PM 42.5053 -116.0092 224° Southwest 381 438 32,000  Level Salt Lake Center
03:04PM 42.4322 -116.1050 224° Southwest 383 441 32,000  Level Salt Lake Center
03:05PM 42.3475 -116.2164 224° Southwest 380 437 32,000  Level Salt Lake Center
03:06PM 42.2733 -116.3119 224° Southwest 383 441 32,000  Level Salt Lake Center
03:07PM 42.1872 -116.4231 224° Southwest 383 441 32,000  Level Salt Lake Center
03:08PM 42.1128 -116.5183 224° Southwest 384 442 32,000  Level Salt Lake Center
03:09PM 42.0264 -116.6294 224° Southwest 385 443 32,000  Level Salt Lake Center
03:10PM 41.9581 -116.7178 224° Southwest 387 445 32,000  Level Salt Lake Center
03:11PM 41.8722 -116.8281 224° Southwest 384 442 32,000  Level Salt Lake Center
03:12PM 41.7981 -116.9222 223° Southwest 383 441 32,000  Level Salt Lake Center
03:13PM 41.7119 -117.0300 223° Southwest 379 436 32,000  Level Salt Lake Center
03:14PM 41.6372 -117.1233 223° Southwest 383 441 32,000  Level Salt Lake Center
03:15PM 41.5506 -117.2342 224° Southwest 386 444 32,000  Level Salt Lake Center
03:16PM 41.4744 -117.3281 223° Southwest 388 447 32,000  Level Salt Lake Center
03:17PM 41.3867 -117.4383 223° Southwest 389 448 32,000  Level Salt Lake Center
03:18PM 41.3111 -117.5328 223° Southwest 390 449 32,000  Level Salt Lake Center
03:19PM 41.2236 -117.6406 223° Southwest 387 445 32,000  Level Salt Lake Center
03:21PM 41.0583 -117.8450 223° Southwest 392 451 32,000  Level Salt Lake Center
03:22PM 40.9819 -117.9392 223° Southwest 392 451 32,000  Level Salt Lake Center
03:23PM 40.8917 -118.0478 222° Southwest 392 451 32,000  Level Salt Lake Center
03:24PM 40.8175 -118.1456 225° Southwest 393 452 32,000  Level Salt Lake Center
03:25PM 40.7564 -118.2886 241° Southwest 400 460 32,000  Level Salt Lake Center
03:26PM 40.7036 -118.4092 240° Southwest 396 456 32,000  Level Salt Lake Center
03:27PM 40.6436 -118.5511 241° Southwest 398 458 32,000  Level Salt Lake Center
03:28PM 40.5914 -118.6728 241° Southwest 398 458 32,000  Level Salt Lake Center
03:30PM 40.5317 -118.8144 241° Southwest 398 458 32,000  Level Salt Lake Center
03:31PM 40.4797 -118.9367 241° Southwest 400 460 32,000  Level Salt Lake Center
03:32PM 40.4189 -119.0769 240° Southwest 401 461 32,000  Level Salt Lake Center
03:33PM 40.3622 -119.2058 240° Southwest 405 466 32,000  Level Oakland Center
03:34PM 40.3058 -119.3331 240° Southwest 406 467 32,000  Level Oakland Center
03:35PM 40.2494 -119.4606 240° Southwest 407 468 32,000 -540 Level Oakland Center
03:36PM 40.1803 -119.6158 240° Southwest 413 475 30,900 -1,020 Descending Oakland Center
03:37PM 40.1206 -119.7517 240° Southwest 428 493 30,000 -480 Descending Oakland Center
03:38PM 40.0622 -119.8833 240° Southwest 422 486 30,000  Level Oakland Center
03:39PM 40.0042 -120.0125 240° Southwest 415 478 30,000  Level Oakland Center
03:40PM 39.9303 -120.1419 233° Southwest 414 476 30,000  Level Oakland Center
03:41PM 39.8556 -120.2575 230° Southwest 417 480 30,000  Level Oakland Center
03:42PM 39.7811 -120.3722 230° Southwest 416 479 30,000  Level Oakland Center
03:43PM 39.7056 -120.4867 229° Southwest 417 480 30,000  Level Oakland Center
03:44PM 39.6292 -120.6014 229° Southwest 419 482 30,000  Level Oakland Center
03:45PM 39.5536 -120.7158 229° Southwest 418 481 30,000  Level Oakland Center
03:46PM 39.4781 -120.8317 230° Southwest 422 486 30,000  Level Oakland Center
03:47PM 39.3856 -120.9681 229° Southwest 421 484 30,000  Level Oakland Center
03:48PM 39.3083 -121.0836 229° Southwest 423 487 30,000  Level Oakland Center
03:49PM 39.2314 -121.1997 229° Southwest 426 490 30,000  Level Oakland Center
03:50PM 39.1531 -121.3150 229° Southwest 429 494 30,000  Level Oakland Center
03:51PM 39.0758 -121.4303 229° Southwest 427 491 30,000  Level Oakland Center
03:52PM 38.9975 -121.5450 229° Southwest 428 493 30,000  Level Oakland Center
03:53PM 38.9194 -121.6611 229° Southwest 431 496 30,000  Level Oakland Center
03:54PM 38.8244 -121.7992 229° Southwest 433 498 30,000 -60 Level Oakland Center
03:55PM 38.7456 -121.9153 229° Southwest 434 499 29,900 -420 Descending Oakland Center
03:56PM 38.6736 -122.0164 228° Southwest 434 499 29,200 -840 Descending Oakland Center
03:57PM 38.5750 -122.1608 229° Southwest 448 516 28,200 -600 Descending Oakland Center
03:58PM 38.4939 -122.2783 229° Southwest 443 510 28,000 -780 Descending Oakland Center
03:59PM 38.4125 -122.3950 228° Southwest 442 509 26,700 -1,860 Descending Oakland Center
04:00PM 38.3328 -122.5111 229° Southwest 439 505 24,200 -2,100 Descending Oakland Center
04:01PM 38.2558 -122.6197 228° Southwest 418 481 22,400 -2,280 Descending Oakland Center
04:02PM 38.1789 -122.7286 228° Southwest 418 481 19,600 -3,000 Descending Oakland Center
04:03PM 38.0744 -122.8231 215° Southwest 403 464 16,300 -2,940 Descending Oakland Center
04:04PM 37.9767 -122.7806 161° South 394 453 13,600 -2,520 Descending Oakland Center
04:06PM 37.8989 -122.6922 138° Southeast 386 444 11,200 -1,380 Descending Oakland Center
04:06PM 37.8333 -122.6167 138° Southeast 338 389 11,000 -120 Descending Northern Cal TRACON
04:07PM 37.7667 -122.5333 135° Southeast 292 336 11,000  Level Northern Cal TRACON
04:08PM 37.7167 -122.4833 142° Southeast 251 289 11,000  Level Northern Cal TRACON
04:09PM 37.6667 -122.4167 133° Southeast 254 292 11,000 -120 Level Northern Cal TRACON
04:10PM 37.6000 -122.3667 149° Southeast 257 296 10,800 -840 Descending Northern Cal TRACON
04:11PM 37.5500 -122.3167 142° Southeast 242 278 9,400 -1,440 Descending Northern Cal TRACON
04:12PM 37.4833 -122.2833 158° South 231 266 8,000 -1,260 Descending Northern Cal TRACON
04:13PM 37.4333 -122.2500 152° Southeast 233 268 7,000 -540 Descending Northern Cal TRACON
04:14PM 37.3833 -122.2167 152° Southeast 238 274 7,000 -420 Level Northern Cal TRACON
04:15PM 37.4167 -122.1667 50° Northeast 246 283 6,200 -780 Descending Northern Cal TRACON
04:16PM 37.4833 -122.1667 360° North 206 237 5,500 -1,080 Descending Northern Cal TRACON
04:17PM 37.5333 -122.1833 345° North 203 234 4,100 -1,440 Descending Northern Cal TRACON
04:18PM 37.5667 -122.2500 302° West 197 227 2,700 -1,320 Descending Northern Cal TRACON
04:19PM 37.5833 -122.3000 293° West 156 180 1,500 -1,200 Descending Northern Cal TRACON
04:20PM 37.6000 -122.3500 293° West 143 165 400 -1,140 Descending Northern Cal TRACON